createdAt,value
2019-02-14T00:01:21.850Z,8.10
2019-02-14T00:03:51.604Z,8.10
2019-02-14T00:06:21.602Z,8.10
2019-02-14T00:08:51.796Z,8.10
2019-02-14T00:11:21.392Z,8.10
2019-02-14T00:13:51.691Z,8.10
2019-02-14T00:16:21.543Z,8.00
2019-02-14T00:18:51.594Z,8.00
2019-02-14T00:21:21.450Z,8.00
2019-02-14T00:23:51.418Z,7.90
2019-02-14T00:26:21.542Z,7.90
2019-02-14T00:28:51.382Z,7.90
2019-02-14T00:31:21.198Z,7.90
2019-02-14T00:33:51.291Z,7.80
2019-02-14T00:36:21.123Z,7.80
2019-02-14T00:38:51.236Z,7.80
2019-02-14T00:41:21.143Z,7.80
2019-02-14T00:43:51.091Z,7.90
2019-02-14T00:46:21.721Z,7.90
2019-02-14T00:48:51.294Z,7.90
2019-02-14T00:51:20.922Z,7.90
2019-02-14T00:53:51.402Z,7.90
2019-02-14T00:56:21.207Z,7.80
2019-02-14T00:58:51.070Z,7.80
2019-02-14T01:01:20.987Z,7.80
2019-02-14T01:03:50.799Z,7.80
2019-02-14T01:06:20.630Z,7.70
2019-02-14T01:08:50.761Z,7.60
2019-02-14T01:11:20.750Z,7.60
2019-02-14T01:13:50.439Z,7.60
2019-02-14T01:16:20.587Z,7.60
2019-02-14T01:18:50.466Z,7.60
2019-02-14T01:21:20.646Z,7.60
2019-02-14T01:23:50.422Z,7.60
2019-02-14T01:26:20.234Z,7.70
2019-02-14T01:28:50.415Z,7.60
2019-02-14T01:31:20.371Z,7.50
2019-02-14T01:33:50.295Z,7.50
2019-02-14T01:36:20.292Z,7.40
2019-02-14T01:38:50.267Z,7.50
2019-02-14T01:41:20.035Z,7.40
2019-02-14T01:43:50.076Z,7.40
2019-02-14T01:46:20.019Z,7.30
2019-02-14T01:48:50.098Z,7.30
2019-02-14T01:51:19.937Z,7.30
2019-02-14T01:53:50.234Z,7.20
2019-02-14T01:56:19.833Z,7.20
2019-02-14T01:58:49.766Z,7.20
2019-02-14T02:01:19.799Z,7.20
2019-02-14T02:03:49.598Z,7.20
2019-02-14T02:06:19.909Z,7.20
2019-02-14T02:08:49.833Z,7.30
2019-02-14T02:11:19.501Z,7.20
2019-02-14T02:13:49.752Z,7.20
2019-02-14T02:16:19.634Z,7.20
2019-02-14T02:18:49.647Z,7.10
2019-02-14T02:21:19.530Z,7.10
2019-02-14T02:23:50.120Z,7.10
2019-02-14T02:26:20.740Z,7.10
2019-02-14T02:28:50.309Z,7.00
2019-02-14T02:31:19.905Z,7.00
2019-02-14T02:33:49.435Z,6.90
2019-02-14T02:36:19.333Z,6.90
2019-02-14T02:38:49.831Z,6.90
2019-02-14T02:41:19.352Z,6.90
2019-02-14T02:43:48.958Z,6.90
2019-02-14T02:46:18.965Z,6.80
2019-02-14T02:48:48.884Z,6.80
2019-02-14T02:51:19.025Z,6.90
2019-02-14T02:53:49.107Z,6.90
2019-02-14T02:56:18.772Z,6.80
2019-02-14T02:58:48.838Z,6.80
2019-02-14T03:01:18.371Z,6.80
2019-02-14T03:03:47.966Z,6.80
2019-02-14T03:06:17.511Z,6.80
2019-02-14T03:08:47.034Z,6.80
2019-02-14T03:11:16.874Z,6.80
2019-02-14T03:13:46.544Z,6.80
2019-02-14T03:16:16.223Z,6.80
2019-02-14T03:18:46.523Z,6.70
2019-02-14T03:21:16.614Z,6.80
2019-02-14T03:23:46.218Z,6.80
2019-02-14T03:26:17.363Z,6.80
2019-02-14T03:28:47.551Z,6.80
2019-02-14T03:31:17.148Z,6.80
2019-02-14T03:33:46.814Z,6.80
2019-02-14T03:36:19.213Z,6.80
2019-02-14T03:38:47.639Z,6.80
2019-02-14T03:41:17.521Z,6.80
2019-02-14T03:43:47.163Z,6.70
2019-02-14T03:46:16.887Z,6.70
2019-02-14T03:48:46.434Z,6.70
2019-02-14T03:51:19.256Z,6.70
2019-02-14T03:53:48.924Z,6.70
2019-02-14T03:56:18.452Z,6.70
2019-02-14T03:58:48.355Z,6.70
2019-02-14T04:01:18.063Z,6.70
2019-02-14T04:03:51.362Z,6.60
2019-02-14T04:06:27.278Z,6.60
2019-02-14T04:08:52.139Z,6.60
2019-02-14T04:11:21.942Z,6.50
2019-02-14T04:13:51.492Z,6.50
2019-02-14T04:16:21.319Z,6.40
2019-02-14T04:18:50.972Z,6.40
2019-02-14T04:21:20.523Z,6.40
2019-02-14T04:23:50.350Z,6.40
2019-02-14T04:26:19.890Z,6.30
2019-02-14T04:28:49.886Z,6.30
2019-02-14T04:31:19.410Z,6.30
2019-02-14T04:33:49.242Z,6.30
2019-02-14T04:36:18.923Z,6.30
2019-02-14T04:38:48.451Z,6.30
2019-02-14T04:41:17.980Z,6.30
2019-02-14T04:43:47.719Z,6.20
2019-02-14T04:46:17.779Z,6.20
2019-02-14T04:48:47.439Z,6.10
2019-02-14T04:51:17.554Z,6.00
2019-02-14T04:53:47.906Z,6.00
2019-02-14T04:56:17.434Z,6.00
2019-02-14T04:58:47.738Z,5.90
2019-02-14T05:01:17.717Z,5.80
2019-02-14T05:03:47.392Z,5.80
2019-02-14T05:06:17.472Z,5.70
2019-02-14T05:08:47.734Z,5.60
2019-02-14T05:11:17.326Z,5.60
2019-02-14T05:13:47.413Z,5.50
2019-02-14T05:16:17.240Z,5.50
2019-02-14T05:18:47.237Z,5.50
2019-02-14T05:21:17.041Z,5.50
2019-02-14T05:23:47.442Z,5.50
2019-02-14T05:26:17.049Z,5.40
2019-02-14T05:28:47.810Z,5.40
2019-02-14T05:31:17.330Z,5.50
2019-02-14T05:33:47.090Z,5.50
2019-02-14T05:36:17.004Z,5.50
2019-02-14T05:38:46.867Z,5.50
2019-02-14T05:41:16.851Z,5.60
2019-02-14T05:43:46.783Z,5.60
2019-02-14T05:46:16.880Z,5.50
2019-02-14T05:48:46.674Z,5.50
2019-02-14T05:51:16.839Z,5.40
2019-02-14T05:53:46.722Z,5.40
2019-02-14T05:56:16.644Z,5.50
2019-02-14T05:58:46.890Z,5.50
2019-02-14T06:01:18.152Z,5.50
2019-02-14T06:03:47.812Z,5.50
2019-02-14T06:06:17.648Z,5.50
2019-02-14T06:08:47.299Z,5.40
2019-02-14T06:11:16.911Z,5.40
2019-02-14T06:13:49.799Z,5.30
2019-02-14T06:16:19.339Z,5.30
2019-02-14T06:18:48.862Z,5.30
2019-02-14T06:21:18.426Z,5.30
2019-02-14T06:23:48.023Z,5.30
2019-02-14T06:26:17.583Z,5.30
2019-02-14T06:28:47.132Z,5.40
2019-02-14T06:31:16.654Z,5.40
2019-02-14T06:33:46.211Z,5.50
2019-02-14T06:36:16.003Z,5.40
2019-02-14T06:38:46.129Z,5.30
2019-02-14T06:41:17.510Z,5.20
2019-02-14T06:43:47.122Z,5.10
2019-02-14T06:46:16.733Z,5.00
2019-02-14T06:48:46.264Z,4.90
2019-02-14T06:51:19.478Z,4.80
2019-02-14T06:53:49.290Z,4.70
2019-02-14T06:56:18.880Z,4.70
2019-02-14T06:58:48.431Z,4.60
2019-02-14T07:01:18.430Z,4.60
2019-02-14T07:03:48.023Z,4.50
2019-02-14T07:06:17.659Z,4.50
2019-02-14T07:08:47.332Z,4.40
2019-02-14T07:11:16.858Z,4.40
2019-02-14T07:13:46.408Z,4.30
2019-02-14T07:16:17.550Z,4.20
2019-02-14T07:18:47.071Z,4.20
2019-02-14T07:21:16.614Z,4.20
2019-02-14T07:23:46.367Z,4.20
2019-02-14T07:26:16.026Z,4.20
2019-02-14T07:28:45.597Z,4.20
2019-02-14T07:31:15.379Z,4.30
2019-02-14T07:33:45.387Z,4.20
2019-02-14T07:36:15.074Z,4.10
2019-02-14T07:38:44.674Z,4.10
2019-02-14T07:41:14.202Z,4.10
2019-02-14T07:43:43.763Z,4.00
2019-02-14T07:46:13.291Z,4.00
2019-02-14T07:48:42.822Z,4.00
2019-02-14T07:51:12.839Z,4.00
2019-02-14T07:53:42.373Z,4.00
2019-02-14T07:56:13.602Z,4.00
2019-02-14T07:58:43.226Z,4.10
2019-02-14T08:01:12.764Z,4.10
2019-02-14T08:03:42.290Z,4.10
2019-02-14T08:06:11.964Z,4.10
2019-02-14T08:08:41.584Z,4.10
2019-02-14T08:11:11.223Z,4.20
2019-02-14T08:13:41.010Z,4.20
2019-02-14T08:16:12.235Z,4.20
2019-02-14T08:18:42.494Z,4.20
2019-02-14T08:21:12.115Z,4.20
2019-02-14T08:23:41.645Z,4.10
2019-02-14T08:26:11.302Z,4.10
2019-02-14T08:28:40.903Z,4.10
2019-02-14T08:31:10.854Z,4.10
2019-02-14T08:33:40.807Z,4.10
2019-02-14T08:36:11.055Z,4.10
2019-02-14T08:38:40.687Z,4.20
2019-02-14T08:41:10.650Z,4.20
2019-02-14T08:43:40.762Z,4.30
2019-02-14T08:46:10.483Z,4.40
2019-02-14T08:48:40.883Z,4.40
2019-02-14T08:51:10.749Z,4.40
2019-02-14T08:53:40.650Z,4.50
2019-02-14T08:56:10.635Z,4.50
2019-02-14T08:58:40.633Z,4.60
2019-02-14T09:01:10.515Z,4.60
2019-02-14T09:03:40.507Z,4.70
2019-02-14T09:06:10.618Z,4.90
2019-02-14T09:08:40.218Z,5.00
2019-02-14T09:11:09.837Z,5.20
2019-02-14T09:13:39.447Z,5.40
2019-02-14T09:16:08.976Z,5.60
2019-02-14T09:18:38.570Z,5.80
2019-02-14T09:21:08.122Z,6.00
2019-02-14T09:23:37.670Z,6.30
2019-02-14T09:26:07.203Z,6.50
2019-02-14T09:28:36.823Z,6.90
2019-02-14T09:31:06.374Z,7.60
2019-02-14T09:33:36.852Z,8.40
2019-02-14T09:36:06.611Z,9.00
2019-02-14T09:38:36.215Z,9.50
2019-02-14T09:41:05.744Z,9.50
2019-02-14T09:43:35.290Z,9.90
2019-02-14T09:46:05.243Z,10.00
2019-02-14T09:48:35.345Z,10.20
2019-02-14T09:51:05.374Z,10.10
2019-02-14T09:53:35.178Z,10.30
2019-02-14T09:56:05.191Z,11.00
2019-02-14T09:58:35.186Z,11.20
2019-02-14T10:01:05.115Z,11.70
2019-02-14T10:03:34.911Z,12.10
2019-02-14T10:06:05.131Z,13.10
2019-02-14T10:08:35.066Z,13.70
2019-02-14T10:11:04.761Z,14.20
2019-02-14T10:13:34.378Z,15.00
2019-02-14T10:16:04.078Z,15.70
2019-02-14T10:18:33.753Z,15.90
2019-02-14T10:21:03.306Z,15.40
2019-02-14T10:23:32.914Z,15.40
2019-02-14T10:26:02.452Z,15.30
2019-02-14T10:28:32.588Z,15.40
2019-02-14T10:31:02.263Z,15.30
2019-02-14T10:33:31.819Z,15.30
2019-02-14T10:36:01.468Z,15.90
2019-02-14T10:38:30.995Z,16.10
2019-02-14T10:41:00.534Z,16.00
2019-02-14T10:43:30.313Z,16.00
2019-02-14T10:46:00.395Z,15.30
2019-02-14T10:48:30.207Z,15.50
2019-02-14T10:51:00.153Z,16.60
2019-02-14T10:53:30.128Z,17.40
2019-02-14T10:56:00.298Z,17.70
2019-02-14T10:58:30.199Z,18.00
2019-02-14T11:01:00.059Z,17.60
2019-02-14T11:03:30.539Z,17.10
2019-02-14T11:06:00.403Z,17.00
2019-02-14T11:08:31.996Z,16.80
2019-02-14T11:11:01.432Z,18.20
2019-02-14T11:13:31.926Z,18.80
2019-02-14T11:16:01.566Z,18.30
2019-02-14T11:18:31.493Z,17.70
2019-02-14T11:21:01.651Z,16.70
2019-02-14T11:23:31.190Z,16.40
2019-02-14T11:26:01.407Z,16.50
2019-02-14T11:28:31.106Z,16.80
2019-02-14T11:31:00.686Z,17.30
2019-02-14T11:33:30.221Z,17.90
2019-02-14T11:35:59.970Z,18.10
2019-02-14T11:38:29.882Z,19.10
2019-02-14T11:40:59.967Z,18.40
2019-02-14T11:43:32.028Z,18.00
2019-02-14T11:46:01.566Z,18.60
2019-02-14T11:48:31.172Z,19.70
2019-02-14T11:51:00.815Z,20.60
2019-02-14T11:53:30.421Z,19.80
2019-02-14T11:56:00.028Z,19.30
2019-02-14T11:58:29.841Z,19.40
2019-02-14T12:00:59.775Z,20.40
2019-02-14T12:03:30.033Z,22.10
2019-02-14T12:05:59.911Z,22.10
2019-02-14T12:08:29.964Z,21.50
2019-02-14T12:10:59.775Z,21.30
2019-02-14T12:13:29.562Z,21.30
2019-02-14T12:15:59.813Z,21.40
2019-02-14T12:18:29.586Z,22.30
2019-02-14T12:20:59.466Z,22.70
2019-02-14T12:23:29.381Z,21.50
2019-02-14T12:25:59.426Z,20.50
2019-02-14T12:28:29.417Z,20.30
2019-02-14T12:30:59.500Z,19.30
2019-02-14T12:33:29.071Z,18.10
2019-02-14T12:35:58.642Z,16.90
2019-02-14T12:38:28.758Z,16.80
2019-02-14T12:40:58.307Z,18.10
2019-02-14T12:43:27.872Z,18.30
2019-02-14T12:45:57.488Z,18.60
2019-02-14T12:48:27.782Z,20.50
2019-02-14T12:50:57.339Z,20.60
2019-02-14T12:53:26.965Z,20.30
2019-02-14T12:55:56.575Z,20.80
2019-02-14T12:58:26.726Z,21.70
2019-02-14T13:00:56.265Z,22.30
2019-02-14T13:03:25.806Z,22.10
2019-02-14T13:05:55.378Z,22.30
2019-02-14T13:08:24.911Z,23.10
2019-02-14T13:10:54.540Z,23.80
2019-02-14T13:13:24.642Z,23.10
2019-02-14T13:15:54.549Z,22.60
2019-02-14T13:18:27.147Z,24.20
2019-02-14T13:20:56.959Z,24.60
2019-02-14T13:23:26.518Z,24.60
2019-02-14T13:25:56.135Z,25.10
2019-02-14T13:28:26.183Z,25.30
2019-02-14T13:30:55.742Z,24.60
2019-02-14T13:33:25.356Z,24.60
2019-02-14T13:35:55.051Z,26.00
2019-02-14T13:38:24.737Z,26.30
2019-02-14T13:40:54.771Z,24.50
2019-02-14T13:43:24.505Z,23.20
2019-02-14T13:45:54.109Z,22.50
2019-02-14T13:48:25.681Z,22.20
2019-02-14T13:50:55.779Z,21.20
2019-02-14T13:53:25.393Z,21.50
2019-02-14T13:55:55.095Z,22.80
2019-02-14T13:58:24.736Z,23.60
2019-02-14T14:00:54.493Z,23.70
2019-02-14T14:03:24.162Z,25.30
2019-02-14T14:05:53.715Z,25.50
2019-02-14T14:08:23.644Z,25.40
2019-02-14T14:10:53.537Z,25.50
2019-02-14T14:13:23.525Z,25.20
2019-02-14T14:15:53.472Z,25.10
2019-02-14T14:18:23.332Z,24.90
2019-02-14T14:20:53.351Z,24.00
2019-02-14T14:23:23.533Z,24.10
2019-02-14T14:25:54.642Z,24.30
2019-02-14T14:28:30.403Z,24.20
2019-02-14T14:31:00.860Z,23.90
2019-02-14T14:33:30.871Z,25.00
2019-02-14T14:36:00.729Z,26.20
2019-02-14T14:38:30.355Z,25.30
2019-02-14T14:40:59.902Z,25.80
2019-02-14T14:43:31.178Z,25.20
2019-02-14T14:46:04.155Z,25.20
2019-02-14T14:48:35.350Z,24.30
2019-02-14T14:51:04.987Z,23.20
2019-02-14T14:53:34.535Z,22.60
2019-02-14T14:56:04.176Z,23.40
2019-02-14T14:58:33.816Z,22.20
2019-02-14T15:01:03.642Z,20.10
2019-02-14T15:03:33.238Z,17.50
2019-02-14T15:06:02.959Z,16.20
2019-02-14T15:08:32.526Z,15.40
2019-02-14T15:11:02.513Z,15.50
2019-02-14T15:13:32.468Z,14.90
2019-02-14T15:16:02.569Z,14.50
2019-02-14T15:18:32.245Z,14.20
2019-02-14T15:21:01.880Z,14.10
2019-02-14T15:23:31.442Z,14.00
2019-02-14T15:26:01.042Z,13.90
2019-02-14T15:28:30.669Z,13.90
2019-02-14T15:31:00.203Z,13.80
2019-02-14T15:33:29.908Z,13.70
2019-02-14T15:35:59.925Z,13.70
2019-02-14T15:38:29.498Z,13.60
2019-02-14T15:40:59.102Z,13.50
2019-02-14T15:43:28.672Z,13.50
2019-02-14T15:45:58.284Z,13.50
2019-02-14T15:48:27.895Z,13.50
2019-02-14T15:50:57.709Z,13.50
2019-02-14T15:53:27.994Z,13.30
2019-02-14T15:55:57.908Z,13.20
2019-02-14T15:58:29.022Z,13.10
2019-02-14T16:00:59.559Z,13.10
2019-02-14T16:03:29.207Z,13.10
2019-02-14T16:05:58.826Z,13.00
2019-02-14T16:08:28.436Z,12.90
2019-02-14T16:10:58.046Z,12.90
2019-02-14T16:13:29.124Z,12.80
2019-02-14T16:15:58.948Z,12.70
2019-02-14T16:18:28.545Z,12.60
2019-02-14T16:20:58.104Z,12.50
2019-02-14T16:23:29.727Z,12.40
2019-02-14T16:25:59.009Z,12.40
2019-02-14T16:28:30.328Z,12.30
2019-02-14T16:30:59.953Z,12.30
2019-02-14T16:33:29.898Z,12.20
2019-02-14T16:35:59.525Z,12.10
2019-02-14T16:38:29.242Z,12.10
2019-02-14T16:40:58.911Z,12.00
2019-02-14T16:43:29.090Z,11.90
2019-02-14T16:45:58.627Z,11.80
2019-02-14T16:48:28.226Z,11.70
2019-02-14T16:50:57.935Z,11.60
2019-02-14T16:53:27.467Z,11.50
2019-02-14T16:56:02.175Z,11.50
2019-02-14T16:58:28.631Z,11.40
2019-02-14T17:00:58.240Z,11.30
2019-02-14T17:03:27.853Z,11.30
2019-02-14T17:05:57.487Z,11.20
2019-02-14T17:08:27.096Z,11.10
2019-02-14T17:10:56.623Z,11.00
2019-02-14T17:13:27.051Z,10.90
2019-02-14T17:15:56.584Z,10.80
2019-02-14T17:18:26.374Z,10.80
2019-02-14T17:20:56.562Z,10.80
2019-02-14T17:23:26.392Z,10.70
2019-02-14T17:25:56.391Z,10.70
2019-02-14T17:28:26.412Z,10.60
2019-02-14T17:30:56.274Z,10.60
2019-02-14T17:33:26.530Z,10.50
2019-02-14T17:35:56.135Z,10.50
2019-02-14T17:38:25.991Z,10.40
2019-02-14T17:40:55.963Z,10.30
2019-02-14T17:43:26.638Z,10.20
2019-02-14T17:45:56.983Z,10.10
2019-02-14T17:48:26.702Z,10.00
2019-02-14T17:50:56.292Z,9.90
2019-02-14T17:53:25.891Z,9.80
2019-02-14T17:55:56.006Z,9.70
2019-02-14T17:58:25.931Z,9.60
2019-02-14T18:00:55.905Z,9.40
2019-02-14T18:03:25.745Z,9.40
2019-02-14T18:05:55.678Z,9.30
2019-02-14T18:08:25.680Z,9.20
2019-02-14T18:10:55.497Z,9.10
2019-02-14T18:13:25.427Z,9.10
2019-02-14T18:15:55.628Z,9.00
2019-02-14T18:18:25.538Z,8.90
2019-02-14T18:20:55.496Z,9.00
2019-02-14T18:23:25.372Z,9.00
2019-02-14T18:25:55.255Z,8.90
2019-02-14T18:28:25.223Z,8.90
2019-02-14T18:30:55.283Z,8.80
2019-02-14T18:33:25.176Z,8.70
2019-02-14T18:35:55.363Z,8.70
2019-02-14T18:38:25.174Z,8.70
2019-02-14T18:41:03.879Z,8.60
2019-02-14T18:43:29.267Z,8.60
2019-02-14T18:45:58.978Z,8.60
2019-02-14T18:48:28.590Z,8.50
2019-02-14T18:50:58.148Z,8.50
2019-02-14T18:53:27.676Z,8.60
2019-02-14T18:55:57.562Z,8.50
2019-02-14T18:58:27.249Z,8.40
2019-02-14T19:00:56.858Z,8.40
2019-02-14T19:03:26.980Z,8.40
2019-02-14T19:05:57.299Z,8.40
2019-02-14T19:08:26.837Z,8.40
2019-02-14T19:10:56.461Z,8.30
2019-02-14T19:13:26.162Z,8.20
2019-02-14T19:15:55.834Z,8.20
2019-02-14T19:18:25.443Z,8.30
2019-02-14T19:20:55.444Z,8.40
2019-02-14T19:23:25.093Z,8.40
2019-02-14T19:25:55.177Z,8.30
2019-02-14T19:28:25.056Z,8.30
2019-02-14T19:30:54.955Z,8.20
2019-02-14T19:33:24.483Z,8.10
2019-02-14T19:35:54.196Z,8.10
2019-02-14T19:38:24.127Z,8.10
2019-02-14T19:40:53.891Z,8.10
2019-02-14T19:43:23.452Z,8.10
2019-02-14T19:45:53.234Z,8.10
2019-02-14T19:48:22.915Z,8.10
2019-02-14T19:50:52.687Z,8.10
2019-02-14T19:53:22.234Z,8.00
2019-02-14T19:55:51.826Z,7.90
2019-02-14T19:58:21.385Z,7.90
2019-02-14T20:00:50.982Z,8.00
2019-02-14T20:03:20.564Z,8.00
2019-02-14T20:05:50.121Z,8.00
2019-02-14T20:08:19.738Z,8.00
2019-02-14T20:10:49.971Z,8.00
2019-02-14T20:13:19.543Z,8.00
2019-02-14T20:15:49.110Z,8.00
2019-02-14T20:18:18.868Z,8.00
2019-02-14T20:20:48.593Z,8.00
2019-02-14T20:23:18.568Z,7.90
2019-02-14T20:25:48.168Z,7.90
2019-02-14T20:28:17.727Z,7.90
2019-02-14T20:30:47.335Z,8.00
2019-02-14T20:33:16.953Z,8.00
2019-02-14T20:35:46.769Z,8.10
2019-02-14T20:38:16.439Z,8.10
2019-02-14T20:40:45.978Z,8.10
2019-02-14T20:43:15.671Z,8.00
2019-02-14T20:45:45.438Z,8.10
2019-02-14T20:48:15.380Z,8.10
2019-02-14T20:50:45.296Z,8.10
2019-02-14T20:53:15.187Z,8.10
2019-02-14T20:55:45.656Z,8.10
2019-02-14T20:58:16.189Z,8.10
2019-02-14T21:00:45.717Z,8.10
2019-02-14T21:03:15.479Z,8.10
2019-02-14T21:05:45.186Z,8.10
2019-02-14T21:08:16.343Z,8.10
2019-02-14T21:10:46.019Z,8.10
2019-02-14T21:13:15.645Z,8.10
2019-02-14T21:15:45.503Z,8.00
2019-02-14T21:18:15.261Z,8.00
2019-02-14T21:20:45.143Z,7.90
2019-02-14T21:23:15.001Z,7.80
2019-02-14T21:25:45.026Z,7.70
2019-02-14T21:28:14.957Z,7.60
2019-02-14T21:30:44.855Z,7.50
2019-02-14T21:33:15.247Z,7.30
2019-02-14T21:35:44.993Z,7.30
2019-02-14T21:38:14.908Z,7.30
2019-02-14T21:40:44.843Z,7.20
2019-02-14T21:43:14.644Z,7.20
2019-02-14T21:45:44.762Z,7.10
2019-02-14T21:48:14.676Z,7.00
2019-02-14T21:50:44.637Z,6.80
2019-02-14T21:53:17.580Z,6.80
2019-02-14T21:55:47.348Z,6.70
2019-02-14T21:58:16.984Z,6.70
2019-02-14T22:00:46.596Z,6.60
2019-02-14T22:03:16.299Z,6.60
2019-02-14T22:05:46.146Z,6.60
2019-02-14T22:08:15.824Z,6.60
2019-02-14T22:10:46.024Z,6.50
2019-02-14T22:13:15.655Z,6.40
2019-02-14T22:15:45.869Z,6.30
2019-02-14T22:18:15.745Z,6.30
2019-02-14T22:20:45.452Z,6.30
2019-02-14T22:23:15.543Z,6.20
2019-02-14T22:25:45.582Z,6.20
2019-02-14T22:28:15.687Z,6.10
2019-02-14T22:30:45.477Z,6.20
2019-02-14T22:33:15.363Z,6.20
2019-02-14T22:35:47.246Z,6.20
2019-02-14T22:38:19.682Z,6.20
2019-02-14T22:40:52.878Z,6.10
2019-02-14T22:43:23.794Z,6.10
2019-02-14T22:45:54.601Z,6.10
2019-02-14T22:48:24.236Z,6.10
2019-02-14T22:50:54.268Z,6.00
2019-02-14T22:53:23.799Z,6.00
2019-02-14T22:55:53.381Z,6.10
2019-02-14T22:58:22.988Z,6.20
2019-02-14T23:00:57.824Z,6.20
2019-02-14T23:03:27.489Z,6.10
2019-02-14T23:05:57.257Z,6.20
2019-02-14T23:08:27.408Z,6.20
2019-02-14T23:10:57.159Z,6.20
2019-02-14T23:13:26.768Z,6.20
2019-02-14T23:15:56.400Z,6.40
2019-02-14T23:18:26.575Z,6.40
2019-02-14T23:20:57.745Z,6.60
2019-02-14T23:23:27.389Z,6.70
2019-02-14T23:25:57.487Z,6.70
2019-02-14T23:28:27.113Z,6.70
2019-02-14T23:30:56.835Z,6.70
2019-02-14T23:33:26.804Z,6.60
2019-02-14T23:35:56.362Z,6.70
2019-02-14T23:38:25.946Z,6.60
2019-02-14T23:40:55.514Z,6.70
2019-02-14T23:43:25.065Z,6.60
2019-02-14T23:45:54.991Z,6.50
2019-02-14T23:48:24.967Z,6.40
2019-02-14T23:50:54.851Z,6.40
2019-02-14T23:53:25.055Z,6.40
2019-02-14T23:55:54.936Z,6.40
2019-02-14T23:58:24.764Z,6.30
